createdAt,value
2023-04-29T00:00:39.231Z,19.27
2023-04-29T00:01:41.906Z,18.82
2023-04-29T00:02:44.369Z,19.99
2023-04-29T00:03:47.061Z,18.38
2023-04-29T00:04:50.038Z,18.14
2023-04-29T00:05:52.831Z,17.11
2023-04-29T00:06:55.314Z,19.35
2023-04-29T00:07:57.753Z,19.65
2023-04-29T00:09:00.192Z,17.45
2023-04-29T00:10:02.729Z,20.12
2023-04-29T00:11:04.923Z,17.01
2023-04-29T00:12:07.436Z,16.23
2023-04-29T00:13:09.880Z,15.98
2023-04-29T00:14:12.352Z,12.29
2023-04-29T00:15:15.374Z,17.06
2023-04-29T00:16:18.078Z,14.58
2023-04-29T00:17:20.641Z,14.06
2023-04-29T00:18:23.236Z,16.37
2023-04-29T00:19:25.952Z,11.10
2023-04-29T00:20:28.629Z,16.35
2023-04-29T00:21:31.185Z,13.80
2023-04-29T00:22:33.516Z,11.88
2023-04-29T00:23:36.127Z,13.81
2023-04-29T00:24:38.615Z,13.40
2023-04-29T00:25:41.528Z,13.50
2023-04-29T00:26:43.975Z,15.30
2023-04-29T00:27:46.530Z,14.13
2023-04-29T00:28:48.928Z,16.29
2023-04-29T00:29:51.566Z,12.58
2023-04-29T00:30:54.464Z,14.03
2023-04-29T00:32:01.722Z,16.87
2023-04-29T00:33:04.373Z,13.26
2023-04-29T00:34:07.096Z,15.52
2023-04-29T00:35:09.555Z,12.60
2023-04-29T00:36:12.257Z,11.61
2023-04-29T00:37:14.747Z,10.71
2023-04-29T00:38:17.383Z,11.16
2023-04-29T00:39:20.112Z,13.21
2023-04-29T00:40:22.585Z,13.15
2023-04-29T00:41:25.194Z,13.72
2023-04-29T00:42:27.694Z,13.00
2023-04-29T00:43:30.166Z,13.33
2023-04-29T00:44:32.566Z,14.20
2023-04-29T00:45:35.052Z,15.05
2023-04-29T00:46:37.807Z,16.48
2023-04-29T00:47:40.314Z,14.97
2023-04-29T00:48:42.839Z,13.42
2023-04-29T00:49:45.362Z,11.08
2023-04-29T00:50:47.853Z,13.61
2023-04-29T00:51:50.540Z,14.49
2023-04-29T00:52:53.039Z,13.69
2023-04-29T00:53:55.527Z,13.17
2023-04-29T00:54:58.369Z,8.99
2023-04-29T00:56:00.952Z,9.52
2023-04-29T00:57:03.560Z,10.28
2023-04-29T00:58:06.216Z,9.65
2023-04-29T00:59:08.677Z,8.41
2023-04-29T01:00:11.091Z,10.57
2023-04-29T01:01:13.578Z,11.14
2023-04-29T01:02:16.166Z,11.01
2023-04-29T01:03:18.653Z,11.12
2023-04-29T01:04:21.365Z,11.39
2023-04-29T01:05:24.112Z,10.71
2023-04-29T01:06:26.675Z,12.44
2023-04-29T01:07:29.287Z,12.35
2023-04-29T01:08:31.816Z,16.28
2023-04-29T01:09:34.145Z,13.00
2023-04-29T01:10:36.405Z,11.11
2023-04-29T01:11:38.683Z,12.81
2023-04-29T01:12:41.015Z,12.75
2023-04-29T01:13:43.253Z,11.71
2023-04-29T01:14:45.565Z,11.67
2023-04-29T01:15:47.929Z,12.90
2023-04-29T01:16:50.178Z,13.60
2023-04-29T01:17:52.680Z,12.53
2023-04-29T01:18:54.918Z,14.03
2023-04-29T01:19:57.175Z,13.03
2023-04-29T01:20:59.538Z,13.19
2023-04-29T01:22:01.887Z,16.25
2023-04-29T01:23:04.379Z,19.33
2023-04-29T01:24:06.590Z,16.50
2023-04-29T01:25:08.856Z,17.73
2023-04-29T01:26:11.206Z,16.32
2023-04-29T01:27:22.694Z,15.43
2023-04-29T01:28:25.376Z,15.68
2023-04-29T01:29:28.440Z,18.60
2023-04-29T01:30:31.729Z,16.55
2023-04-29T01:31:35.270Z,16.99
2023-04-29T01:32:38.547Z,16.70
2023-04-29T01:33:41.796Z,17.72
2023-04-29T01:34:45.987Z,18.54
2023-04-29T01:35:49.196Z,17.01
2023-04-29T01:36:52.765Z,14.81
2023-04-29T01:37:55.843Z,15.69
2023-04-29T01:38:59.530Z,14.25
2023-04-29T01:40:02.917Z,16.29
2023-04-29T01:41:05.920Z,13.05
2023-04-29T01:42:09.270Z,14.97
2023-04-29T01:43:12.246Z,14.95
2023-04-29T01:44:15.432Z,12.78
2023-04-29T01:45:18.421Z,11.75
2023-04-29T01:46:21.833Z,13.42
2023-04-29T01:47:25.310Z,12.97
2023-04-29T01:48:28.679Z,17.16
2023-04-29T01:49:32.196Z,14.80
2023-04-29T01:50:35.551Z,15.40
2023-04-29T01:51:39.461Z,12.60
2023-04-29T01:52:43.058Z,15.67
2023-04-29T01:53:46.039Z,14.61
2023-04-29T01:54:49.516Z,12.13
2023-04-29T01:55:52.814Z,13.89
2023-04-29T01:56:55.674Z,15.38
2023-04-29T01:57:59.039Z,15.60
2023-04-29T01:59:02.432Z,15.79
2023-04-29T02:00:05.762Z,16.14
2023-04-29T02:01:08.720Z,15.87
2023-04-29T02:02:11.772Z,15.13
2023-04-29T02:03:15.282Z,16.25
2023-04-29T02:04:18.330Z,17.36
2023-04-29T02:05:21.722Z,17.15
2023-04-29T02:06:24.772Z,15.51
2023-04-29T02:07:27.599Z,17.75
2023-04-29T02:08:30.868Z,17.58
2023-04-29T02:09:33.980Z,18.66
2023-04-29T02:10:36.643Z,18.78
2023-04-29T02:11:40.097Z,18.19
2023-04-29T02:12:43.105Z,17.08
2023-04-29T02:13:46.429Z,17.88
2023-04-29T02:14:49.970Z,19.58
2023-04-29T02:15:53.066Z,15.80
2023-04-29T02:16:56.320Z,15.14
2023-04-29T02:17:59.973Z,19.93
2023-04-29T02:19:03.433Z,16.73
2023-04-29T02:20:06.198Z,15.34
2023-04-29T02:21:09.413Z,15.26
2023-04-29T02:22:12.860Z,14.36
2023-04-29T02:23:16.044Z,15.65
2023-04-29T02:24:19.417Z,17.01
2023-04-29T02:25:22.796Z,14.11
2023-04-29T02:26:26.122Z,14.56
2023-04-29T02:27:28.781Z,15.46
2023-04-29T02:28:31.655Z,13.89
2023-04-29T02:29:34.655Z,13.08
2023-04-29T02:30:37.894Z,14.66
2023-04-29T02:31:41.177Z,13.91
2023-04-29T02:32:44.621Z,16.42
2023-04-29T02:33:47.577Z,11.78
2023-04-29T02:34:50.716Z,12.31
2023-04-29T02:35:53.731Z,13.84
2023-04-29T02:36:57.310Z,12.58
2023-04-29T02:38:00.778Z,13.36
2023-04-29T02:39:03.689Z,12.07
2023-04-29T02:40:06.451Z,13.51
2023-04-29T02:41:09.474Z,11.71
2023-04-29T02:42:12.510Z,12.09
2023-04-29T02:43:15.525Z,10.20
2023-04-29T02:44:18.952Z,12.52
2023-04-29T02:45:21.758Z,10.68
2023-04-29T02:46:24.787Z,10.95
2023-04-29T02:47:27.851Z,9.42
2023-04-29T02:48:30.821Z,10.20
2023-04-29T02:49:33.729Z,10.56
2023-04-29T02:50:37.014Z,9.47
2023-04-29T02:51:40.203Z,10.91
2023-04-29T02:52:43.616Z,9.97
2023-04-29T02:53:46.490Z,9.66
2023-04-29T02:54:49.716Z,11.99
2023-04-29T02:55:52.551Z,8.77
2023-04-29T02:56:55.799Z,7.82
2023-04-29T02:57:59.082Z,8.28
2023-04-29T02:59:02.345Z,6.77
2023-04-29T03:00:05.256Z,7.48
2023-04-29T03:01:07.910Z,8.42
2023-04-29T03:02:10.873Z,9.02
2023-04-29T03:03:14.351Z,6.70
2023-04-29T03:04:17.670Z,10.13
2023-04-29T03:05:21.008Z,8.87
2023-04-29T03:06:23.647Z,9.71
2023-04-29T03:07:26.953Z,10.28
2023-04-29T03:08:30.394Z,8.36
2023-04-29T03:09:33.657Z,11.11
2023-04-29T03:10:37.012Z,10.45
2023-04-29T03:11:41.002Z,9.39
2023-04-29T03:12:44.369Z,8.59
2023-04-29T03:13:47.554Z,7.72
2023-04-29T03:14:50.633Z,7.56
2023-04-29T03:15:54.122Z,9.72
2023-04-29T03:16:57.221Z,10.29
2023-04-29T03:18:00.707Z,8.96
2023-04-29T03:19:04.173Z,9.23
2023-04-29T03:20:07.265Z,9.42
2023-04-29T03:21:10.523Z,11.44
2023-04-29T03:22:13.621Z,10.14
2023-04-29T03:23:23.015Z,9.81
2023-04-29T03:24:26.120Z,9.63
2023-04-29T03:25:36.853Z,9.80
2023-04-29T03:26:40.106Z,9.04
2023-04-29T03:27:43.439Z,9.81
2023-04-29T03:28:46.716Z,8.94
2023-04-29T03:29:50.141Z,8.52
2023-04-29T03:30:54.166Z,8.79
2023-04-29T03:31:57.710Z,10.63
2023-04-29T03:33:02.165Z,9.62
2023-04-29T03:34:05.298Z,9.34
2023-04-29T03:35:08.834Z,10.40
2023-04-29T03:36:11.790Z,7.49
2023-04-29T03:37:14.647Z,7.55
2023-04-29T03:38:17.622Z,8.00
2023-04-29T03:39:20.507Z,6.75
2023-04-29T03:40:23.126Z,7.85
2023-04-29T03:41:25.636Z,7.61
2023-04-29T03:42:28.016Z,6.83
2023-04-29T03:43:30.476Z,7.22
2023-04-29T03:44:32.945Z,7.65
2023-04-29T03:45:35.371Z,7.50
2023-04-29T03:46:38.090Z,7.37
2023-04-29T03:47:40.772Z,6.33
2023-04-29T03:48:43.264Z,6.16
2023-04-29T03:49:45.856Z,6.10
2023-04-29T03:50:48.427Z,6.05
2023-04-29T03:51:51.110Z,6.28
2023-04-29T03:52:53.578Z,5.71
2023-04-29T03:53:56.112Z,6.98
2023-04-29T03:54:58.586Z,6.97
2023-04-29T03:56:01.050Z,7.35
2023-04-29T03:57:03.754Z,7.52
2023-04-29T03:58:06.431Z,5.46
2023-04-29T03:59:08.950Z,8.44
2023-04-29T04:00:11.438Z,7.76
2023-04-29T04:01:13.909Z,12.25
2023-04-29T04:02:16.541Z,6.90
2023-04-29T04:03:19.285Z,7.72
2023-04-29T04:04:22.195Z,7.04
2023-04-29T04:05:25.196Z,7.41
2023-04-29T04:06:27.631Z,8.97
2023-04-29T04:07:30.171Z,6.72
2023-04-29T04:08:32.441Z,6.42
2023-04-29T04:09:35.072Z,6.03
2023-04-29T04:10:37.584Z,5.57
2023-04-29T04:11:40.152Z,4.53
2023-04-29T04:12:44.282Z,7.56
2023-04-29T04:13:46.834Z,7.23
2023-04-29T04:14:49.257Z,7.38
2023-04-29T04:15:51.577Z,8.43
2023-04-29T04:16:54.870Z,6.17
2023-04-29T04:17:57.213Z,6.68
2023-04-29T04:18:59.445Z,8.30
2023-04-29T04:20:01.906Z,6.95
2023-04-29T04:21:04.570Z,7.75
2023-04-29T04:22:07.151Z,8.79
2023-04-29T04:23:10.890Z,7.06
2023-04-29T04:24:13.353Z,7.98
2023-04-29T04:25:15.917Z,8.29
2023-04-29T04:26:18.447Z,8.88
2023-04-29T04:27:21.042Z,9.81
2023-04-29T04:28:23.586Z,8.35
2023-04-29T04:29:25.811Z,9.25
2023-04-29T04:30:28.276Z,9.72
2023-04-29T04:31:30.758Z,8.81
2023-04-29T04:32:33.033Z,9.25
2023-04-29T04:33:35.628Z,6.81
2023-04-29T04:34:38.113Z,8.06
2023-04-29T04:35:40.542Z,10.19
2023-04-29T04:36:42.987Z,11.48
2023-04-29T04:37:45.461Z,8.91
2023-04-29T04:38:47.926Z,9.61
2023-04-29T04:39:50.578Z,10.87
2023-04-29T04:40:53.238Z,8.26
2023-04-29T04:41:55.468Z,8.58
2023-04-29T04:42:57.931Z,6.71
2023-04-29T04:44:00.173Z,6.41
2023-04-29T04:45:02.424Z,7.58
2023-04-29T04:46:04.790Z,6.41
2023-04-29T04:47:07.118Z,6.22
2023-04-29T04:48:09.753Z,8.18
2023-04-29T04:49:12.221Z,7.17
2023-04-29T04:50:16.230Z,6.89
2023-04-29T04:51:18.758Z,6.75
2023-04-29T04:52:21.255Z,9.36
2023-04-29T04:53:23.715Z,6.77
2023-04-29T04:54:26.136Z,8.03
2023-04-29T04:55:28.685Z,10.18
2023-04-29T04:56:31.192Z,8.82
2023-04-29T04:57:33.729Z,7.04
2023-04-29T04:58:36.152Z,7.31
2023-04-29T04:59:38.680Z,7.68
2023-04-29T05:00:41.105Z,8.96
2023-04-29T05:01:43.564Z,8.61
2023-04-29T05:02:46.287Z,9.09
2023-04-29T05:03:49.075Z,7.87
2023-04-29T05:04:51.675Z,8.00
2023-04-29T05:05:54.129Z,8.58
2023-04-29T05:06:56.577Z,8.94
2023-04-29T05:07:59.061Z,10.10
2023-04-29T05:09:01.532Z,9.83
2023-04-29T05:10:03.890Z,10.94
2023-04-29T05:11:06.130Z,9.37
2023-04-29T05:12:08.393Z,7.62
2023-04-29T05:13:10.627Z,9.88
2023-04-29T05:14:12.946Z,9.78
2023-04-29T05:15:15.160Z,10.44
2023-04-29T05:16:17.597Z,9.08
2023-04-29T05:17:20.279Z,10.13
2023-04-29T05:18:22.923Z,14.46
2023-04-29T05:19:25.493Z,13.50
2023-04-29T05:20:27.977Z,12.81
2023-04-29T05:21:30.532Z,13.39
2023-04-29T05:22:33.030Z,12.72
2023-04-29T05:23:35.513Z,13.60
2023-04-29T05:24:38.069Z,11.18
2023-04-29T05:25:40.477Z,12.24
2023-04-29T05:26:42.979Z,12.00
2023-04-29T05:27:45.562Z,13.95
2023-04-29T05:28:47.826Z,11.84
2023-04-29T05:29:50.036Z,14.19
2023-04-29T05:30:52.385Z,13.17
2023-04-29T05:31:54.705Z,11.12
2023-04-29T05:32:57.033Z,12.43
2023-04-29T05:33:59.315Z,12.61
2023-04-29T05:35:01.549Z,13.70
2023-04-29T05:36:03.738Z,11.67
2023-04-29T05:37:05.972Z,11.52
2023-04-29T05:38:08.246Z,11.08
2023-04-29T05:39:10.444Z,12.32
2023-04-29T05:40:12.754Z,11.58
2023-04-29T05:41:14.998Z,12.50
2023-04-29T05:42:17.307Z,10.53
2023-04-29T05:43:19.509Z,10.23
2023-04-29T05:44:21.710Z,11.38
2023-04-29T05:45:23.950Z,10.74
2023-04-29T05:46:26.192Z,10.96
2023-04-29T05:47:28.706Z,16.76
2023-04-29T05:48:30.999Z,13.53
2023-04-29T05:49:33.525Z,12.60
2023-04-29T05:50:35.966Z,13.61
2023-04-29T05:51:38.374Z,13.78
2023-04-29T05:52:40.625Z,15.55
2023-04-29T05:53:43.032Z,15.85
2023-04-29T05:54:45.644Z,12.54
2023-04-29T05:55:49.708Z,12.03
2023-04-29T05:56:52.226Z,15.30
2023-04-29T05:57:54.668Z,15.08
2023-04-29T05:58:56.921Z,11.92
2023-04-29T05:59:59.156Z,13.71
2023-04-29T06:01:01.455Z,11.30
2023-04-29T06:02:03.678Z,13.75
2023-04-29T06:03:05.966Z,13.51
2023-04-29T06:04:08.552Z,14.01
2023-04-29T06:05:11.460Z,12.28
2023-04-29T06:06:14.149Z,15.42
2023-04-29T06:07:18.871Z,13.11
2023-04-29T06:08:20.812Z,11.84
2023-04-29T06:09:27.647Z,12.47
2023-04-29T06:10:27.295Z,14.12
2023-04-29T06:11:29.733Z,14.36
2023-04-29T06:12:32.222Z,13.22
2023-04-29T06:13:34.692Z,12.43
2023-04-29T06:14:37.146Z,13.36
2023-04-29T06:15:39.621Z,13.82
2023-04-29T06:16:42.189Z,11.62
2023-04-29T06:17:44.741Z,11.81
2023-04-29T06:18:47.206Z,11.86
2023-04-29T06:19:49.755Z,13.72
2023-04-29T06:20:52.380Z,16.52
2023-04-29T06:21:54.829Z,11.31
2023-04-29T06:23:00.812Z,13.85
2023-04-29T06:24:03.082Z,12.24
2023-04-29T06:25:05.633Z,13.48
2023-04-29T06:26:08.105Z,12.05
2023-04-29T06:27:10.526Z,11.76
2023-04-29T06:28:12.999Z,12.59
2023-04-29T06:29:15.496Z,13.02
2023-04-29T06:30:17.788Z,15.62
2023-04-29T06:31:22.970Z,13.68
2023-04-29T06:32:24.623Z,13.31
2023-04-29T06:33:27.041Z,12.25
2023-04-29T06:34:29.238Z,13.10
2023-04-29T06:35:31.500Z,10.82
2023-04-29T06:36:33.743Z,11.99
2023-04-29T06:37:37.956Z,14.05
2023-04-29T06:38:39.976Z,12.30
2023-04-29T06:39:42.452Z,11.07
2023-04-29T06:40:44.883Z,13.05
2023-04-29T06:41:47.462Z,12.85
2023-04-29T06:42:49.973Z,12.65
2023-04-29T06:43:52.238Z,12.11
2023-04-29T06:44:54.674Z,13.20
2023-04-29T06:45:57.196Z,12.52
2023-04-29T06:47:02.752Z,13.00
2023-04-29T06:48:05.198Z,14.97
2023-04-29T06:49:07.689Z,14.96
2023-04-29T06:50:10.081Z,14.83
2023-04-29T06:51:12.775Z,16.39
2023-04-29T06:52:15.229Z,14.20
2023-04-29T06:53:17.412Z,16.17
2023-04-29T06:54:19.906Z,14.48
2023-04-29T06:55:22.467Z,13.06
2023-04-29T06:56:24.878Z,15.12
2023-04-29T06:57:27.341Z,11.68
2023-04-29T06:58:29.860Z,14.63
2023-04-29T06:59:32.341Z,15.01
2023-04-29T07:00:34.909Z,13.74
2023-04-29T07:01:37.458Z,12.81
2023-04-29T07:02:41.774Z,13.59
2023-04-29T07:03:44.431Z,14.19
2023-04-29T07:04:47.156Z,13.01
2023-04-29T07:05:49.799Z,13.80
2023-04-29T07:06:52.271Z,14.22
2023-04-29T07:07:54.719Z,13.72
2023-04-29T07:08:57.282Z,13.18
2023-04-29T07:09:59.821Z,13.04
2023-04-29T07:11:02.349Z,14.33
2023-04-29T07:12:04.752Z,16.48
2023-04-29T07:13:07.264Z,15.72
2023-04-29T07:14:09.767Z,13.95
2023-04-29T07:15:12.526Z,13.74
2023-04-29T07:16:15.052Z,14.50
2023-04-29T07:17:17.697Z,13.25
2023-04-29T07:18:20.246Z,13.55
2023-04-29T07:19:22.757Z,13.33
2023-04-29T07:20:25.221Z,13.68
2023-04-29T07:21:27.714Z,11.87
2023-04-29T07:22:30.145Z,15.87
2023-04-29T07:23:32.679Z,17.53
2023-04-29T07:24:35.229Z,16.98
2023-04-29T07:25:37.725Z,13.22
2023-04-29T07:26:40.161Z,14.26
2023-04-29T07:27:42.622Z,14.32
2023-04-29T07:28:44.928Z,12.77
2023-04-29T07:29:47.835Z,14.90
2023-04-29T07:30:50.181Z,14.22
2023-04-29T07:31:52.431Z,15.93
2023-04-29T07:32:54.785Z,14.10
2023-04-29T07:33:57.151Z,12.97
2023-04-29T07:34:59.516Z,13.43
2023-04-29T07:36:01.951Z,10.39
2023-04-29T07:37:04.557Z,13.05
2023-04-29T07:38:07.200Z,13.54
2023-04-29T07:39:09.761Z,12.85
2023-04-29T07:40:12.243Z,14.23
2023-04-29T07:41:14.882Z,14.04
2023-04-29T07:42:17.386Z,14.58
2023-04-29T07:43:20.038Z,15.94
2023-04-29T07:44:22.620Z,15.41
2023-04-29T07:45:25.025Z,14.28
2023-04-29T07:46:27.577Z,16.26
2023-04-29T07:47:30.085Z,15.55
2023-04-29T07:48:32.362Z,15.53
2023-04-29T07:49:34.723Z,15.14
2023-04-29T07:50:37.009Z,16.91
2023-04-29T07:51:39.216Z,15.26
2023-04-29T07:52:41.419Z,14.73
2023-04-29T07:53:44.735Z,13.49
2023-04-29T07:54:47.279Z,17.12
2023-04-29T07:55:49.593Z,18.57
2023-04-29T07:56:51.802Z,13.98
2023-04-29T07:57:54.350Z,14.30
2023-04-29T07:58:56.858Z,15.14
2023-04-29T07:59:59.320Z,14.84
2023-04-29T08:01:04.452Z,14.35
2023-04-29T08:02:07.016Z,14.67
2023-04-29T08:03:09.533Z,15.83
2023-04-29T08:04:12.257Z,13.94
2023-04-29T08:05:15.222Z,13.22
2023-04-29T08:06:18.151Z,13.78
2023-04-29T08:07:20.890Z,15.92
2023-04-29T08:08:23.327Z,15.98
2023-04-29T08:09:25.906Z,18.06
2023-04-29T08:10:28.371Z,17.22
2023-04-29T08:11:30.977Z,17.06
2023-04-29T08:12:33.421Z,16.53
2023-04-29T08:13:35.950Z,17.65
2023-04-29T08:14:38.369Z,19.77
2023-04-29T08:15:41.297Z,17.08
2023-04-29T08:16:43.999Z,17.38
2023-04-29T08:17:46.570Z,16.42
2023-04-29T08:18:48.891Z,16.02
2023-04-29T08:19:51.136Z,15.70
2023-04-29T08:20:53.337Z,16.01
2023-04-29T08:21:55.597Z,15.20
2023-04-29T08:22:58.164Z,17.05
2023-04-29T08:24:00.414Z,18.61
2023-04-29T08:25:02.935Z,18.87
2023-04-29T08:26:05.473Z,18.87
2023-04-29T08:27:07.967Z,16.47
2023-04-29T08:28:10.386Z,17.60
2023-04-29T08:29:12.834Z,16.62
2023-04-29T08:30:15.321Z,14.38
2023-04-29T08:31:17.822Z,18.67
2023-04-29T08:32:20.399Z,17.41
2023-04-29T08:33:22.879Z,20.37
2023-04-29T08:34:25.343Z,20.27
2023-04-29T08:35:27.809Z,19.51
2023-04-29T08:36:30.351Z,16.07
2023-04-29T08:37:33.008Z,19.90
2023-04-29T08:38:35.343Z,15.08
2023-04-29T08:39:37.615Z,16.14
2023-04-29T08:40:39.968Z,17.77
2023-04-29T08:41:42.210Z,16.88
2023-04-29T08:42:44.990Z,21.07
2023-04-29T08:43:48.208Z,19.66
2023-04-29T08:44:50.791Z,16.79
2023-04-29T08:45:55.874Z,17.46
2023-04-29T08:46:58.459Z,19.51
2023-04-29T08:48:01.403Z,20.99
2023-04-29T08:49:06.595Z,17.87
2023-04-29T08:50:09.155Z,21.25
2023-04-29T08:51:11.676Z,20.52
2023-04-29T08:52:14.374Z,19.27
2023-04-29T08:53:16.598Z,19.74
2023-04-29T08:54:19.245Z,18.42
2023-04-29T08:55:21.702Z,17.85
2023-04-29T08:56:24.963Z,17.83
2023-04-29T08:57:28.297Z,21.93
2023-04-29T08:58:30.945Z,20.42
2023-04-29T08:59:34.533Z,17.99
2023-04-29T09:00:36.987Z,20.52
2023-04-29T09:01:39.267Z,23.11
2023-04-29T09:02:41.670Z,24.15
2023-04-29T09:03:44.143Z,19.84
2023-04-29T09:04:46.611Z,20.43
2023-04-29T09:05:48.854Z,20.94
2023-04-29T09:06:51.116Z,19.47
2023-04-29T09:07:53.350Z,20.89
2023-04-29T09:08:55.688Z,16.30
2023-04-29T09:09:57.893Z,17.78
2023-04-29T09:11:01.651Z,20.72
2023-04-29T09:12:03.996Z,16.12
2023-04-29T09:13:06.345Z,16.19
2023-04-29T09:14:08.916Z,17.34
2023-04-29T09:15:11.434Z,23.00
2023-04-29T09:16:13.896Z,21.33
2023-04-29T09:17:16.300Z,22.39
2023-04-29T09:18:19.663Z,18.37
2023-04-29T09:19:22.222Z,22.53
2023-04-29T09:20:24.580Z,19.49
2023-04-29T09:21:26.825Z,17.92
2023-04-29T09:22:29.237Z,19.62
2023-04-29T09:23:31.479Z,24.87
2023-04-29T09:24:33.961Z,20.85
2023-04-29T09:25:36.423Z,21.53
2023-04-29T09:26:39.007Z,20.39
2023-04-29T09:27:41.568Z,18.05
2023-04-29T09:28:44.020Z,18.25
2023-04-29T09:29:46.242Z,18.65
2023-04-29T09:30:48.697Z,19.07
2023-04-29T09:31:51.012Z,20.90
2023-04-29T09:32:53.286Z,20.03
2023-04-29T09:33:55.581Z,18.10
2023-04-29T09:34:57.911Z,16.65
2023-04-29T09:36:00.137Z,17.85
2023-04-29T09:37:02.406Z,18.51
2023-04-29T09:38:04.669Z,21.73
2023-04-29T09:39:07.149Z,21.78
2023-04-29T09:40:09.447Z,24.22
2023-04-29T09:41:11.680Z,24.97
2023-04-29T09:42:14.244Z,20.03
2023-04-29T09:43:17.038Z,27.75
2023-04-29T09:44:19.503Z,22.34
2023-04-29T09:45:21.953Z,22.27
2023-04-29T09:46:24.522Z,24.51
2023-04-29T09:47:27.122Z,26.07
2023-04-29T09:48:29.764Z,22.71
2023-04-29T09:49:32.338Z,23.92
2023-04-29T09:50:34.814Z,23.30
2023-04-29T09:51:37.164Z,23.65
2023-04-29T09:52:39.409Z,24.53
2023-04-29T09:53:41.833Z,19.69
2023-04-29T09:54:44.448Z,21.73
2023-04-29T09:55:46.996Z,20.40
2023-04-29T09:56:49.424Z,21.92
2023-04-29T09:57:51.643Z,20.50
2023-04-29T09:58:54.089Z,23.90
2023-04-29T09:59:56.650Z,19.69
2023-04-29T10:00:59.125Z,19.21
2023-04-29T10:02:01.648Z,18.79
2023-04-29T10:03:04.399Z,23.18
2023-04-29T10:04:06.846Z,23.82
2023-04-29T10:05:09.773Z,18.65
2023-04-29T10:06:14.177Z,21.58
2023-04-29T10:07:16.460Z,26.92
2023-04-29T10:08:19.119Z,18.50
2023-04-29T10:09:21.566Z,26.83
2023-04-29T10:10:26.646Z,22.06
2023-04-29T10:11:29.615Z,24.57
2023-04-29T10:12:31.896Z,18.52
2023-04-29T10:13:34.127Z,21.37
2023-04-29T10:14:36.373Z,24.14
2023-04-29T10:15:38.862Z,27.35
2023-04-29T10:16:41.339Z,19.21
2023-04-29T10:17:43.782Z,23.76
2023-04-29T10:18:46.235Z,21.64
2023-04-29T10:19:48.755Z,22.66
2023-04-29T10:20:51.456Z,24.22
2023-04-29T10:21:53.695Z,24.54
2023-04-29T10:22:56.004Z,23.33
2023-04-29T10:23:58.219Z,21.64
2023-04-29T10:25:00.430Z,20.91
2023-04-29T10:26:02.713Z,27.12
2023-04-29T10:27:07.996Z,32.17
2023-04-29T10:28:10.234Z,29.89
2023-04-29T10:29:12.621Z,27.53
2023-04-29T10:30:15.159Z,27.11
2023-04-29T10:31:18.085Z,23.86
2023-04-29T10:32:20.738Z,23.92
2023-04-29T10:33:23.304Z,29.04
2023-04-29T10:34:25.824Z,23.89
2023-04-29T10:35:28.274Z,29.75
2023-04-29T10:36:31.015Z,29.03
2023-04-29T10:37:33.512Z,24.67
2023-04-29T10:38:35.896Z,32.12
2023-04-29T10:39:38.339Z,35.78
2023-04-29T10:40:45.607Z,28.61
2023-04-29T10:41:47.938Z,31.01
2023-04-29T10:42:50.201Z,35.38
2023-04-29T10:43:52.454Z,32.33
2023-04-29T10:44:54.834Z,24.07
2023-04-29T10:45:57.287Z,33.29
2023-04-29T10:47:00.041Z,31.48
2023-04-29T10:48:02.715Z,33.55
2023-04-29T10:49:05.161Z,32.98
2023-04-29T10:50:07.722Z,31.17
2023-04-29T10:51:10.076Z,26.42
2023-04-29T10:52:12.517Z,29.18
2023-04-29T10:53:14.747Z,30.46
2023-04-29T10:54:16.983Z,24.99
2023-04-29T10:55:19.188Z,27.30
2023-04-29T10:56:21.701Z,33.84
2023-04-29T10:57:24.315Z,29.69
2023-04-29T10:58:26.739Z,27.62
2023-04-29T10:59:29.232Z,35.33
2023-04-29T11:00:31.548Z,30.88
2023-04-29T11:01:33.884Z,42.39
2023-04-29T11:02:36.493Z,49.45
2023-04-29T11:03:39.177Z,35.78
2023-04-29T11:04:41.639Z,38.55
2023-04-29T11:05:43.943Z,33.20
2023-04-29T11:06:46.236Z,29.52
2023-04-29T11:07:48.463Z,26.19
2023-04-29T11:08:50.680Z,23.52
2023-04-29T11:09:53.353Z,17.31
2023-04-29T11:10:56.039Z,18.85
2023-04-29T11:11:58.637Z,18.32
2023-04-29T11:13:01.290Z,13.03
2023-04-29T11:14:03.526Z,12.14
2023-04-29T11:15:05.821Z,12.19
2023-04-29T11:16:08.263Z,13.48
2023-04-29T11:17:10.587Z,11.61
2023-04-29T11:18:12.939Z,15.72
2023-04-29T11:19:15.268Z,15.60
2023-04-29T11:20:17.876Z,18.92
2023-04-29T11:21:20.541Z,12.42
2023-04-29T11:22:23.101Z,12.49
2023-04-29T11:23:28.404Z,13.48
2023-04-29T11:24:29.946Z,16.18
2023-04-29T11:25:32.460Z,13.09
2023-04-29T11:26:35.076Z,12.07
2023-04-29T11:27:37.881Z,16.11
2023-04-29T11:28:40.523Z,16.93
2023-04-29T11:29:42.980Z,13.01
2023-04-29T11:30:45.220Z,14.09
2023-04-29T11:31:47.931Z,14.45
2023-04-29T11:32:50.558Z,13.27
2023-04-29T11:33:53.038Z,13.43
2023-04-29T11:34:55.633Z,13.95
2023-04-29T11:35:58.257Z,16.44
2023-04-29T11:37:00.523Z,14.92
2023-04-29T11:38:02.828Z,15.38
2023-04-29T11:39:05.140Z,15.32
2023-04-29T11:40:07.347Z,10.97
2023-04-29T11:41:09.799Z,14.24
2023-04-29T11:42:12.256Z,13.08
2023-04-29T11:43:14.874Z,14.86
2023-04-29T11:44:17.235Z,14.29
2023-04-29T11:45:19.554Z,13.22
2023-04-29T11:46:21.805Z,12.01
2023-04-29T11:47:24.085Z,11.28
2023-04-29T11:48:26.466Z,13.27
2023-04-29T11:49:29.191Z,12.88
2023-04-29T11:50:31.733Z,14.03
2023-04-29T11:51:34.301Z,12.42
2023-04-29T11:52:36.869Z,11.29
2023-04-29T11:53:39.358Z,7.95
2023-04-29T11:54:42.053Z,10.60
2023-04-29T11:55:44.588Z,9.64
2023-04-29T11:56:47.241Z,13.34
2023-04-29T11:57:49.693Z,11.96
2023-04-29T11:58:52.245Z,12.59
2023-04-29T11:59:55.090Z,12.09
2023-04-29T12:00:57.692Z,10.09
2023-04-29T12:02:00.335Z,10.23
2023-04-29T12:03:02.952Z,11.54
2023-04-29T12:04:05.442Z,10.57
2023-04-29T12:05:08.078Z,12.88
2023-04-29T12:06:11.693Z,11.92
2023-04-29T12:07:15.266Z,12.78
2023-04-29T12:08:17.484Z,12.51
2023-04-29T12:09:19.736Z,11.39
2023-04-29T12:10:22.175Z,10.64
2023-04-29T12:11:24.420Z,9.05
2023-04-29T12:12:26.697Z,12.55
2023-04-29T12:13:29.197Z,10.01
2023-04-29T12:14:31.743Z,7.09
2023-04-29T12:15:34.236Z,8.35
2023-04-29T12:16:36.586Z,8.34
2023-04-29T12:17:39.058Z,7.56
2023-04-29T12:18:41.342Z,6.75
2023-04-29T12:19:43.540Z,7.51
2023-04-29T12:20:46.032Z,8.26
2023-04-29T12:21:49.816Z,7.76
2023-04-29T12:22:52.266Z,9.63
2023-04-29T12:23:54.690Z,10.56
2023-04-29T12:24:58.104Z,8.68
2023-04-29T12:26:02.433Z,7.13
2023-04-29T12:27:14.294Z,9.18
2023-04-29T12:28:16.748Z,10.75
2023-04-29T12:29:19.264Z,10.50
2023-04-29T12:30:21.785Z,14.55
2023-04-29T12:31:24.329Z,17.50
2023-04-29T12:32:31.722Z,14.58
2023-04-29T12:33:34.229Z,14.14
2023-04-29T12:34:36.750Z,12.50
2023-04-29T12:35:39.191Z,9.73
2023-04-29T12:36:41.658Z,10.71
2023-04-29T12:37:44.072Z,12.18
2023-04-29T12:38:46.592Z,13.93
2023-04-29T12:39:49.016Z,11.72
2023-04-29T12:40:51.433Z,12.85
2023-04-29T12:41:54.081Z,14.44
2023-04-29T12:42:56.540Z,11.71
2023-04-29T12:43:58.942Z,11.52
2023-04-29T12:45:01.285Z,11.89
2023-04-29T12:46:03.906Z,10.78
2023-04-29T12:47:06.733Z,8.25
2023-04-29T12:48:18.226Z,7.65
2023-04-29T12:49:13.319Z,7.56
2023-04-29T12:50:15.798Z,7.83
2023-04-29T12:51:19.484Z,7.96
2023-04-29T12:52:21.927Z,8.94
2023-04-29T12:53:24.161Z,9.78
2023-04-29T12:54:26.376Z,6.67
2023-04-29T12:55:28.591Z,5.95
2023-04-29T12:56:30.767Z,4.28
2023-04-29T12:57:33.048Z,4.20
2023-04-29T12:58:35.569Z,3.80
2023-04-29T12:59:38.497Z,3.48
2023-04-29T13:00:41.067Z,3.15
2023-04-29T13:01:43.608Z,4.06
2023-04-29T13:02:46.436Z,4.76
2023-04-29T13:03:49.516Z,3.86
2023-04-29T13:04:52.332Z,3.24
2023-04-29T13:05:55.287Z,4.13
2023-04-29T13:06:57.802Z,3.38
2023-04-29T13:08:00.554Z,2.62
2023-04-29T13:09:02.957Z,2.92
2023-04-29T13:10:05.360Z,4.13
2023-04-29T13:11:07.703Z,4.63
2023-04-29T13:12:09.985Z,4.33
2023-04-29T13:13:12.234Z,5.17
2023-04-29T13:14:14.496Z,3.34
2023-04-29T13:15:16.762Z,3.54
2023-04-29T13:16:19.005Z,2.67
2023-04-29T13:17:21.262Z,4.53
2023-04-29T13:18:23.899Z,2.10
2023-04-29T13:19:41.055Z,3.42
2023-04-29T13:20:30.388Z,4.40
2023-04-29T13:21:32.649Z,4.42
2023-04-29T13:22:35.049Z,4.58
2023-04-29T13:23:37.450Z,3.14
2023-04-29T13:24:39.689Z,2.68
2023-04-29T13:25:41.933Z,2.68
2023-04-29T13:26:44.095Z,3.13
2023-04-29T13:27:46.324Z,3.20
2023-04-29T13:28:48.840Z,2.59
2023-04-29T13:29:51.336Z,4.84
2023-04-29T13:30:53.783Z,4.03
2023-04-29T13:31:56.205Z,2.91
2023-04-29T13:33:04.369Z,3.40
2023-04-29T13:34:02.865Z,2.48